Time;durP1;ratioP1;P1;durP2;ratioP2;P2;SDS_P1;SDS_P2;PMS_P1;PMS_P2;Temp;Humidity;BMP_temperature;BMP_pressure;BME280_temperature;BME280_humidity;BME280_pressure;Samples;Min_cycle;Max_cycle;Signal;HPM_P1;HPM_P2
2021/09/01 00:00:21;;;;;;;9.68;3.50;;;20.50;80.50;;;;;;4196243;28;20071;-63
2021/09/01 00:02:43;;;;;;;5.20;2.88;;;20.50;80.40;;;;;;4210365;28;20452;-64
2021/09/01 00:05:07;;;;;;;9.20;3.88;;;20.50;80.60;;;;;;4210679;28;20098;-64
2021/09/01 00:07:28;;;;;;;4.78;3.17;;;20.50;80.40;;;;;;4186223;28;20062;-63
2021/09/01 00:09:52;;;;;;;9.48;3.88;;;20.50;80.80;;;;;;4193124;28;20133;-63
2021/09/01 00:12:14;;;;;;;9.00;3.53;;;20.50;80.30;;;;;;4193035;28;20490;-64
2021/09/01 00:14:36;;;;;;;9.70;3.47;;;20.50;80.40;;;;;;4193544;28;20053;-64
2021/09/01 00:16:58;;;;;;;5.60;2.70;;;20.50;80.40;;;;;;4194739;28;20123;-64
2021/09/01 00:19:21;;;;;;;6.85;2.88;;;20.50;80.70;;;;;;4192377;28;20045;-64
2021/09/01 00:21:43;;;;;;;6.85;3.33;;;20.50;80.90;;;;;;4190812;28;20095;-64
2021/09/01 00:24:05;;;;;;;11.18;3.70;;;20.50;80.80;;;;;;4193279;28;20064;-64
2021/09/01 00:26:30;;;;;;;6.32;3.78;;;20.50;80.80;;;;;;4193242;28;20052;-64
2021/09/01 00:28:52;;;;;;;8.23;3.55;;;20.50;80.80;;;;;;4181124;28;20127;-64
2021/09/01 00:31:15;;;;;;;7.28;3.47;;;20.50;81.00;;;;;;4192849;28;20059;-64
2021/09/01 00:33:38;;;;;;;8.38;3.17;;;20.50;81.00;;;;;;4193479;28;20062;-64
2021/09/01 00:36:00;;;;;;;8.27;3.15;;;20.50;82.10;;;;;;4200761;28;20044;-63
2021/09/01 00:38:23;;;;;;;7.78;3.50;;;20.50;81.00;;;;;;4203567;28;20103;-63
2021/09/01 00:40:45;;;;;;;5.93;3.20;;;20.50;81.00;;;;;;4176566;28;20053;-63
2021/09/01 00:43:08;;;;;;;9.02;4.15;;;20.50;81.00;;;;;;4176716;28;20102;-63
2021/09/01 00:45:30;;;;;;;7.55;3.53;;;20.50;80.90;;;;;;4179910;28;20036;-64
2021/09/01 00:47:52;;;;;;;8.20;3.75;;;20.50;81.00;;;;;;4175966;28;20056;-64
2021/09/01 00:50:15;;;;;;;7.35;3.10;;;20.50;81.00;;;;;;4178472;28;20077;-64
2021/09/01 00:52:40;;;;;;;5.45;2.90;;;20.50;81.10;;;;;;4192998;28;20036;-63
2021/09/01 00:55:04;;;;;;;10.10;4.30;;;20.50;81.10;;;;;;4191595;28;20056;-63
2021/09/01 00:57:26;;;;;;;9.18;3.40;;;20.50;81.20;;;;;;4176153;28;20691;-63
2021/09/01 00:59:50;;;;;;;9.32;3.45;;;20.50;81.20;;;;;;4192522;28;20048;-64
2021/09/01 01:02:12;;;;;;;6.75;3.38;;;20.50;80.90;;;;;;4192903;28;20063;-63
2021/09/01 01:04:35;;;;;;;6.85;3.65;;;20.50;80.90;;;;;;4192928;28;20094;-64
2021/09/01 01:06:59;;;;;;;7.07;3.15;;;20.50;80.90;;;;;;4176025;28;20388;-64
2021/09/01 01:09:21;;;;;;;6.10;3.10;;;20.50;81.10;;;;;;4186110;28;20048;-64
2021/09/01 01:11:59;;;;;;;8.00;3.33;;;20.50;81.20;;;;;;4176140;28;20045;-63
2021/09/01 01:14:21;;;;;;;5.88;3.40;;;20.50;80.90;;;;;;4200108;28;20047;-64
2021/09/01 01:16:44;;;;;;;7.90;3.40;;;20.40;81.30;;;;;;4208896;28;20613;-64
2021/09/01 01:19:06;;;;;;;7.65;3.72;;;20.50;81.30;;;;;;4187843;28;20041;-63
2021/09/01 01:21:30;;;;;;;8.30;3.20;;;20.50;81.30;;;;;;4202668;28;20065;-63
2021/09/01 01:23:54;;;;;;;5.65;2.78;;;20.50;81.20;;;;;;4207478;28;20052;-63
2021/09/01 01:26:18;;;;;;;9.00;3.08;;;20.50;81.10;;;;;;4209113;28;20074;-64
2021/09/01 01:28:40;;;;;;;5.72;2.53;;;20.50;81.10;;;;;;4201608;28;20055;-64
2021/09/01 01:31:02;;;;;;;11.75;3.55;;;20.40;81.30;;;;;;4201249;28;20831;-64
2021/09/01 01:33:24;;;;;;;8.35;3.78;;;20.40;81.30;;;;;;4208856;28;20565;-64
2021/09/01 01:35:47;;;;;;;6.85;3.80;;;20.40;81.30;;;;;;4201167;28;20490;-64
2021/09/01 01:38:11;;;;;;;9.55;3.60;;;20.40;81.30;;;;;;4191748;28;20529;-63
2021/09/01 01:40:34;;;;;;;8.63;3.95;;;20.40;81.30;;;;;;4197229;28;20047;-64
2021/09/01 01:42:58;;;;;;;3.92;2.83;;;20.40;81.50;;;;;;4208306;28;20047;-63
2021/09/01 01:45:20;;;;;;;7.20;3.33;;;20.40;81.40;;;;;;4209208;28;20043;-64
2021/09/01 01:47:42;;;;;;;7.75;3.53;;;20.40;81.50;;;;;;4208661;28;20074;-64
2021/09/01 01:50:06;;;;;;;4.70;3.13;;;20.40;81.50;;;;;;4182281;28;20048;-64
2021/09/01 01:52:28;;;;;;;7.03;3.13;;;20.40;81.30;;;;;;4208432;28;20048;-64
2021/09/01 01:54:50;;;;;;;7.65;3.22;;;20.40;81.00;;;;;;4208855;28;20105;-64
2021/09/01 01:57:14;;;;;;;8.65;3.15;;;20.40;81.20;;;;;;4208463;28;20051;-64
2021/09/01 01:59:37;;;;;;;6.18;2.97;;;20.40;81.20;;;;;;4194823;28;20051;-63
2021/09/01 02:01:59;;;;;;;7.63;3.03;;;20.40;81.20;;;;;;4175458;28;20041;-63
2021/09/01 02:04:21;;;;;;;8.40;3.47;;;20.40;81.20;;;;;;4175494;28;20103;-64
2021/09/01 02:06:44;;;;;;;8.30;3.55;;;20.40;81.30;;;;;;4176423;28;20136;-64
2021/09/01 02:09:05;;;;;;;6.22;2.97;;;20.40;82.20;;;;;;4175194;28;20076;-64
2021/09/01 02:11:28;;;;;;;6.35;3.22;;;20.40;82.20;;;;;;4204104;28;20101;-64
2021/09/01 02:13:50;;;;;;;7.03;3.67;;;20.40;81.30;;;;;;4208255;28;20410;-64
2021/09/01 02:16:13;;;;;;;6.18;2.97;;;20.40;81.40;;;;;;4195691;28;20045;-64
2021/09/01 02:18:35;;;;;;;9.38;3.75;;;20.40;81.40;;;;;;4174804;28;20155;-64
2021/09/01 02:20:57;;;;;;;8.35;3.30;;;20.40;81.40;;;;;;4197961;28;20512;-64
2021/09/01 02:23:20;;;;;;;5.50;2.60;;;20.40;81.30;;;;;;4178809;28;20411;-64
2021/09/01 02:25:42;;;;;;;6.40;2.88;;;20.40;81.50;;;;;;4191805;28;20051;-63
2021/09/01 02:28:04;;;;;;;7.53;3.47;;;20.40;81.50;;;;;;4191810;28;20377;-64
2021/09/01 02:30:26;;;;;;;6.10;2.72;;;20.40;81.30;;;;;;4197519;28;20051;-63
2021/09/01 02:32:50;;;;;;;6.00;2.78;;;20.40;81.30;;;;;;4200665;28;20055;-64
2021/09/01 02:35:13;;;;;;;7.18;3.25;;;20.40;81.30;;;;;;4196375;28;20422;-64
2021/09/01 02:37:34;;;;;;;9.38;3.13;;;20.40;81.20;;;;;;4207769;28;20404;-64
2021/09/01 02:39:57;;;;;;;9.13;3.22;;;20.40;81.20;;;;;;4174449;28;20095;-64
2021/09/01 02:42:19;;;;;;;8.30;2.95;;;20.40;81.20;;;;;;4174966;28;20064;-65
2021/09/01 02:44:41;;;;;;;6.25;2.97;;;20.40;81.20;;;;;;4174454;28;20045;-64
2021/09/01 02:47:04;;;;;;;5.25;3.20;;;20.40;81.10;;;;;;4174411;28;20069;-64
2021/09/01 02:49:27;;;;;;;6.22;3.42;;;20.40;81.10;;;;;;4188920;28;20051;-64
2021/09/01 02:51:49;;;;;;;6.22;2.78;;;20.40;80.90;;;;;;4174619;28;20060;-64
2021/09/01 02:54:11;;;;;;;4.40;2.33;;;20.40;80.90;;;;;;4191687;28;20502;-64
2021/09/01 02:56:34;;;;;;;5.30;3.10;;;20.40;80.90;;;;;;4190961;28;20076;-64
2021/09/01 02:58:56;;;;;;;4.97;2.50;;;20.40;80.90;;;;;;4202525;28;20052;-64
2021/09/01 03:01:18;;;;;;;5.78;2.50;;;20.40;80.70;;;;;;4207663;28;20074;-64
2021/09/01 03:03:41;;;;;;;5.72;2.80;;;20.40;80.60;;;;;;4190726;28;20040;-64
2021/09/01 03:06:04;;;;;;;6.18;2.70;;;20.40;80.60;;;;;;4191947;28;20494;-63
2021/09/01 03:08:26;;;;;;;6.28;2.88;;;20.40;80.60;;;;;;4195224;28;20449;-62
2021/09/01 03:10:48;;;;;;;7.75;2.85;;;20.40;80.80;;;;;;4207558;28;20044;-63
2021/09/01 03:13:10;;;;;;;7.43;3.10;;;20.40;80.70;;;;;;4207581;28;20081;-64
2021/09/01 03:15:33;;;;;;;7.65;2.90;;;20.40;80.80;;;;;;4199121;28;20555;-63
2021/09/01 03:17:55;;;;;;;5.55;3.00;;;20.40;80.90;;;;;;4209620;28;20524;-63
2021/09/01 03:20:17;;;;;;;4.80;2.70;;;20.30;80.80;;;;;;4203722;28;20101;-64
2021/09/01 03:22:41;;;;;;;5.57;2.38;;;20.40;81.10;;;;;;4204880;28;20053;-64
2021/09/01 03:25:03;;;;;;;4.88;2.78;;;20.40;81.20;;;;;;4210312;28;20422;-64
2021/09/01 03:27:25;;;;;;;5.32;2.75;;;20.30;81.20;;;;;;4203733;28;20414;-63
2021/09/01 03:29:47;;;;;;;3.88;2.92;;;20.30;81.10;;;;;;4177408;28;20487;-64
2021/09/01 03:32:10;;;;;;;6.00;2.72;;;20.40;80.70;;;;;;4186579;28;22857;-64
2021/09/01 03:34:32;;;;;;;7.03;2.70;;;20.40;80.40;;;;;;4210078;28;20132;-64
2021/09/01 03:36:54;;;;;;;6.15;2.95;;;20.30;80.60;;;;;;4211074;28;20068;-63
2021/09/01 03:39:17;;;;;;;4.13;2.65;;;20.40;80.80;;;;;;4210714;28;20048;-63
2021/09/01 03:41:40;;;;;;;5.25;3.10;;;20.30;80.60;;;;;;4210662;28;20051;-63
2021/09/01 03:44:02;;;;;;;4.03;2.50;;;20.30;80.70;;;;;;4193766;28;20054;-63
2021/09/01 03:46:25;;;;;;;4.95;2.38;;;20.30;81.00;;;;;;4193702;28;20047;-63
2021/09/01 03:48:46;;;;;;;5.80;2.97;;;20.30;81.00;;;;;;4194070;28;20090;-62
2021/09/01 03:51:08;;;;;;;5.45;2.72;;;20.30;81.10;;;;;;4208307;28;20048;-63
2021/09/01 03:53:30;;;;;;;4.72;3.00;;;20.30;81.90;;;;;;4210644;28;20039;-63
2021/09/01 03:55:54;;;;;;;4.05;2.55;;;20.30;81.10;;;;;;4210861;28;20055;-63
2021/09/01 03:58:16;;;;;;;4.00;2.55;;;20.30;81.10;;;;;;4210354;28;20501;-63
2021/09/01 04:00:39;;;;;;;5.22;3.13;;;20.30;81.20;;;;;;4190111;28;20045;-63
2021/09/01 04:03:01;;;;;;;7.70;3.28;;;20.30;81.10;;;;;;4177364;28;20159;-63
2021/09/01 04:05:24;;;;;;;6.18;2.95;;;20.30;81.10;;;;;;4186700;28;20127;-62
2021/09/01 04:07:46;;;;;;;5.65;3.00;;;20.30;81.00;;;;;;4194167;28;20044;-63
2021/09/01 04:10:09;;;;;;;4.05;2.22;;;20.30;81.10;;;;;;4192089;28;20052;-62
2021/09/01 04:12:32;;;;;;;6.15;2.67;;;20.30;81.10;;;;;;4193540;28;20041;-63
2021/09/01 04:14:54;;;;;;;6.90;3.15;;;20.30;81.00;;;;;;4192263;28;20044;-63
2021/09/01 04:17:16;;;;;;;6.43;2.97;;;20.30;81.20;;;;;;4193875;28;20702;-62
2021/09/01 04:19:38;;;;;;;4.68;2.60;;;20.30;81.10;;;;;;4195286;28;20084;-63
2021/09/01 04:22:00;;;;;;;5.65;2.67;;;20.30;81.20;;;;;;4210651;28;20046;-63
2021/09/01 04:24:22;;;;;;;6.45;3.63;;;20.30;81.20;;;;;;4209944;28;20059;-62
2021/09/01 04:26:45;;;;;;;6.53;2.67;;;20.30;81.20;;;;;;4209986;28;20044;-64
2021/09/01 04:29:08;;;;;;;4.28;2.70;;;20.30;81.20;;;;;;4210167;28;20055;-61
2021/09/01 04:31:30;;;;;;;4.70;2.50;;;20.30;81.30;;;;;;4176844;28;20564;-63
2021/09/01 04:33:52;;;;;;;5.90;2.83;;;20.30;81.50;;;;;;4176762;28;20053;-64
2021/09/01 04:36:14;;;;;;;5.38;2.60;;;20.30;81.40;;;;;;4176309;28;20052;-64
2021/09/01 04:38:37;;;;;;;5.57;3.33;;;20.30;81.40;;;;;;4176954;28;20112;-62
2021/09/01 04:40:59;;;;;;;8.70;3.33;;;20.30;81.40;;;;;;4199903;28;20048;-62
2021/09/01 04:43:21;;;;;;;6.47;2.60;;;20.30;81.50;;;;;;4185092;28;20049;-63
2021/09/01 04:45:45;;;;;;;6.03;2.47;;;20.30;81.60;;;;;;4176327;28;20048;-63
2021/09/01 04:48:06;;;;;;;4.72;2.53;;;20.30;81.50;;;;;;4191794;28;20051;-63
2021/09/01 04:50:29;;;;;;;4.63;2.65;;;20.30;81.60;;;;;;4197007;28;20077;-62
2021/09/01 04:52:51;;;;;;;7.57;2.97;;;20.30;81.60;;;;;;4191946;28;20075;-63
2021/09/01 04:55:15;;;;;;;6.55;2.90;;;20.30;81.60;;;;;;4192878;28;20052;-63
2021/09/01 04:57:37;;;;;;;6.28;2.72;;;20.30;81.80;;;;;;4191961;28;20048;-63
2021/09/01 05:00:00;;;;;;;8.95;3.13;;;20.30;81.80;;;;;;4193113;28;20048;-63
2021/09/01 05:02:23;;;;;;;10.38;3.53;;;20.30;81.70;;;;;;4192567;28;20090;-64
2021/09/01 05:04:45;;;;;;;11.95;3.05;;;20.30;81.60;;;;;;4191799;28;20442;-63
2021/09/01 05:07:08;;;;;;;10.20;3.35;;;20.30;81.70;;;;;;4192702;28;20147;-64
2021/09/01 05:09:30;;;;;;;11.20;3.70;;;20.30;81.80;;;;;;4193039;28;20090;-64
2021/09/01 05:11:52;;;;;;;12.85;3.75;;;20.30;81.80;;;;;;4192719;28;20043;-64
2021/09/01 05:14:14;;;;;;;10.93;3.55;;;20.30;81.80;;;;;;4193443;28;20045;-64
2021/09/01 05:16:36;;;;;;;11.00;3.00;;;20.30;81.90;;;;;;4209096;28;20119;-64
2021/09/01 05:18:59;;;;;;;9.98;3.38;;;20.30;82.00;;;;;;4208107;28;20870;-64
2021/09/01 05:21:25;;;;;;;7.47;3.08;;;20.20;81.80;;;;;;4176948;28;20080;-64
2021/09/01 05:23:53;;;;;;;8.13;2.85;;;20.20;82.00;;;;;;4175567;28;20068;-64
2021/09/01 05:26:19;;;;;;;7.25;2.67;;;20.30;81.90;;;;;;4192417;28;20123;-63
2021/09/01 05:28:41;;;;;;;6.25;2.80;;;20.20;82.10;;;;;;4192927;28;20464;-64
2021/09/01 05:31:05;;;;;;;7.60;2.97;;;20.20;83.00;;;;;;4192028;28;25002;-64
2021/09/01 05:33:29;;;;;;;4.93;2.83;;;20.30;82.00;;;;;;4192472;28;20133;-65
2021/09/01 05:35:53;;;;;;;4.70;2.58;;;20.30;82.20;;;;;;4208778;28;20040;-64
2021/09/01 05:38:17;;;;;;;7.32;3.33;;;20.30;82.20;;;;;;4209085;28;20105;-64
2021/09/01 05:40:42;;;;;;;8.50;3.00;;;20.30;82.10;;;;;;4208103;28;20441;-65
2021/09/01 05:43:05;;;;;;;7.10;2.88;;;20.30;82.30;;;;;;4208957;28;20052;-64
2021/09/01 05:45:28;;;;;;;6.57;3.20;;;20.30;82.50;;;;;;4203659;28;20409;-63
2021/09/01 05:47:51;;;;;;;6.22;2.70;;;20.30;82.70;;;;;;4175729;28;20083;-63
2021/09/01 05:50:13;;;;;;;4.53;2.70;;;20.30;82.30;;;;;;4189378;28;20041;-63
2021/09/01 05:52:37;;;;;;;3.65;2.50;;;20.30;82.30;;;;;;4191128;28;20055;-63
2021/09/01 05:55:04;;;;;;;6.03;2.83;;;20.40;82.70;;;;;;4192028;28;20048;-63
2021/09/01 05:57:35;;;;;;;6.57;2.53;;;20.30;82.70;;;;;;4190044;28;20563;-63
2021/09/01 06:00:04;;;;;;;9.82;3.47;;;20.40;82.30;;;;;;4190382;28;20048;-63
2021/09/01 06:02:38;;;;;;;5.45;2.95;;;20.40;82.50;;;;;;4192137;28;20056;-65
2021/09/01 06:05:05;;;;;;;5.57;2.85;;;20.40;82.20;;;;;;4188521;28;20097;-67
2021/09/01 06:07:29;;;;;;;5.25;2.58;;;20.40;82.10;;;;;;4189998;28;20047;-65
2021/09/01 06:09:55;;;;;;;6.97;2.97;;;20.40;83.00;;;;;;4188817;28;20071;-67
2021/09/01 06:12:21;;;;;;;7.80;3.05;;;20.30;82.10;;;;;;4188681;28;20055;-67
2021/09/01 06:14:43;;;;;;;3.65;2.67;;;20.30;82.20;;;;;;4188248;28;20468;-67
2021/09/01 06:17:07;;;;;;;7.43;3.10;;;20.30;82.30;;;;;;4185174;28;20415;-67
2021/09/01 06:19:32;;;;;;;6.70;2.60;;;20.30;82.30;;;;;;4171347;28;20414;-66
2021/09/01 06:22:04;;;;;;;5.07;2.55;;;20.30;82.50;;;;;;4155367;28;20052;-66
2021/09/01 06:24:36;;;;;;;9.63;3.40;;;20.30;82.40;;;;;;4167215;28;20048;-68
2021/09/01 06:27:08;;;;;;;5.70;2.95;;;20.30;82.70;;;;;;4157577;28;20095;-67
2021/09/01 06:29:39;;;;;;;5.53;3.00;;;20.30;82.80;;;;;;4159817;28;20071;-67
2021/09/01 06:32:07;;;;;;;7.78;3.00;;;20.30;82.80;;;;;;4161268;28;20410;-66
2021/09/01 06:34:41;;;;;;;7.15;3.05;;;20.30;82.70;;;;;;4153820;28;20509;-67
2021/09/01 06:37:11;;;;;;;7.10;3.17;;;20.30;82.70;;;;;;4155145;28;20083;-66
2021/09/01 06:39:44;;;;;;;6.70;2.92;;;20.30;82.80;;;;;;4152911;28;20728;-67
2021/09/01 06:42:22;;;;;;;5.35;2.75;;;20.30;82.80;;;;;;4148828;28;20115;-66
2021/09/01 06:44:54;;;;;;;10.68;3.83;;;20.30;82.60;;;;;;4163568;28;20131;-67
2021/09/01 06:47:24;;;;;;;6.95;3.28;;;20.30;82.60;;;;;;4171165;28;20056;-67
2021/09/01 06:49:52;;;;;;;7.47;3.22;;;20.30;82.60;;;;;;4153737;28;20040;-65
2021/09/01 06:52:19;;;;;;;4.03;2.45;;;20.30;82.60;;;;;;4168640;28;20098;-66
2021/09/01 06:54:41;;;;;;;7.53;3.20;;;20.30;82.80;;;;;;4190076;28;20068;-66
2021/09/01 06:57:03;;;;;;;4.70;2.65;;;20.30;83.40;;;;;;4189870;28;20090;-67
2021/09/01 06:59:27;;;;;;;5.40;3.00;;;20.30;82.70;;;;;;4188965;28;20459;-68
2021/09/01 07:01:49;;;;;;;7.78;2.97;;;20.30;82.60;;;;;;4187762;28;20101;-66
2021/09/01 07:04:12;;;;;;;4.50;2.67;;;20.30;82.80;;;;;;4186889;28;20409;-67
2021/09/01 07:06:34;;;;;;;5.82;2.80;;;20.30;82.80;;;;;;4186247;28;20118;-65
2021/09/01 07:08:57;;;;;;;4.57;2.30;;;20.30;82.80;;;;;;4190187;28;20052;-67
2021/09/01 07:11:19;;;;;;;6.07;2.80;;;20.30;83.10;;;;;;4187443;28;20048;-68
2021/09/01 07:13:42;;;;;;;6.38;2.83;;;20.30;83.10;;;;;;4186155;28;20163;-69
2021/09/01 07:16:07;;;;;;;5.85;3.08;;;20.30;83.20;;;;;;4185864;28;20130;-67
2021/09/01 07:18:29;;;;;;;7.43;3.35;;;20.30;83.20;;;;;;4191831;28;20485;-68
2021/09/01 07:20:51;;;;;;;4.00;2.72;;;20.30;83.10;;;;;;4188413;28;20047;-67
2021/09/01 07:23:16;;;;;;;4.07;2.72;;;20.30;83.30;;;;;;4189197;28;20060;-68
2021/09/01 07:25:38;;;;;;;6.35;3.05;;;20.30;83.20;;;;;;4183646;28;20554;-68
2021/09/01 07:28:01;;;;;;;7.88;3.03;;;20.30;83.20;;;;;;4190354;28;20048;-68
2021/09/01 07:30:23;;;;;;;8.18;3.42;;;20.30;83.10;;;;;;4190309;28;20048;-67
2021/09/01 07:32:47;;;;;;;6.50;3.33;;;20.30;83.00;;;;;;4187304;28;20502;-69
2021/09/01 07:35:09;;;;;;;6.57;3.17;;;20.30;82.90;;;;;;4190094;28;20111;-65
2021/09/01 07:37:32;;;;;;;8.40;3.25;;;20.30;83.10;;;;;;4189567;28;20048;-64
2021/09/01 07:39:54;;;;;;;6.65;2.83;;;20.30;83.10;;;;;;4188192;28;20055;-65
2021/09/01 07:42:16;;;;;;;11.52;3.15;;;20.30;82.90;;;;;;4186993;28;20130;-66
2021/09/01 07:44:38;;;;;;;8.65;3.00;;;20.30;82.80;;;;;;4186588;28;20044;-69
2021/09/01 07:47:00;;;;;;;9.02;3.33;;;20.30;82.90;;;;;;4189790;28;20048;-69
2021/09/01 07:49:23;;;;;;;5.03;2.75;;;20.30;82.80;;;;;;4188606;28;20072;-67
2021/09/01 07:51:47;;;;;;;6.22;3.03;;;20.30;82.90;;;;;;4186889;28;20041;-66
2021/09/01 07:54:09;;;;;;;11.90;2.78;;;20.40;82.80;;;;;;4184929;28;20222;-66
2021/09/01 07:56:31;;;;;;;4.55;2.53;;;20.40;82.90;;;;;;4190120;28;20055;-67
2021/09/01 07:58:54;;;;;;;7.75;2.88;;;20.30;82.90;;;;;;4188438;28;20139;-67
2021/09/01 08:01:16;;;;;;;6.93;3.42;;;20.40;83.00;;;;;;4186836;28;20056;-66
2021/09/01 08:03:38;;;;;;;6.40;3.00;;;20.40;82.90;;;;;;4187821;28;20090;-65
2021/09/01 08:06:04;;;;;;;8.60;2.95;;;20.40;82.70;;;;;;4192502;28;20427;-65
2021/09/01 08:08:26;;;;;;;6.38;3.35;;;20.30;83.60;;;;;;4190756;28;20044;-65
2021/09/01 08:10:48;;;;;;;8.80;3.30;;;20.40;82.80;;;;;;4190354;28;20049;-66
2021/09/01 08:13:10;;;;;;;6.28;2.70;;;20.40;82.50;;;;;;4189004;28;20131;-66
2021/09/01 08:15:32;;;;;;;6.07;3.25;;;20.40;82.50;;;;;;4195403;28;20445;-66
2021/09/01 08:17:54;;;;;;;6.88;2.63;;;20.40;82.40;;;;;;4190398;28;20047;-66
2021/09/01 08:20:17;;;;;;;7.20;3.22;;;20.40;82.70;;;;;;4196115;28;20044;-66
2021/09/01 08:22:41;;;;;;;11.05;3.53;;;20.40;82.60;;;;;;4188792;28;20486;-67
2021/09/01 08:25:03;;;;;;;8.70;4.35;;;20.40;82.50;;;;;;4192146;28;20044;-66
2021/09/01 08:27:27;;;;;;;7.85;3.20;;;20.40;83.50;;;;;;4190847;28;20063;-66
2021/09/01 08:29:49;;;;;;;9.75;4.00;;;20.40;84.80;;;;;;4189917;28;20836;-66
2021/09/01 08:32:11;;;;;;;14.93;6.72;;;20.50;84.50;;;;;;4188784;28;20545;-67
2021/09/01 08:34:34;;;;;;;18.85;7.70;;;20.50;85.80;;;;;;4194871;28;20105;-67
2021/09/01 08:36:56;;;;;;;9.27;4.60;;;20.50;85.30;;;;;;4191028;28;20063;-67
2021/09/01 08:39:20;;;;;;;15.68;4.57;;;20.50;85.10;;;;;;4191170;28;20139;-65
2021/09/01 08:41:43;;;;;;;10.75;3.65;;;20.50;85.10;;;;;;4188384;28;20060;-65
2021/09/01 08:44:05;;;;;;;7.75;3.78;;;20.50;84.60;;;;;;4186340;28;20052;-66
2021/09/01 08:46:30;;;;;;;14.73;4.80;;;20.60;84.60;;;;;;4193763;28;20062;-65
2021/09/01 08:48:53;;;;;;;13.95;5.22;;;20.50;83.90;;;;;;4191909;28;20041;-66
2021/09/01 08:51:15;;;;;;;7.80;3.63;;;20.50;84.50;;;;;;4189116;28;20487;-65
2021/09/01 08:53:37;;;;;;;16.40;5.82;;;20.50;84.40;;;;;;4190764;28;20084;-66
2021/09/01 08:56:01;;;;;;;7.28;3.35;;;20.50;84.50;;;;;;4192071;28;20406;-64
2021/09/01 08:58:23;;;;;;;10.55;3.90;;;20.60;84.50;;;;;;4190176;28;20410;-63
2021/09/01 09:00:45;;;;;;;9.32;4.00;;;20.50;85.30;;;;;;4189838;28;20044;-66
2021/09/01 09:03:09;;;;;;;7.03;3.28;;;20.60;84.40;;;;;;4187929;28;20564;-67
2021/09/01 09:05:34;;;;;;;9.77;3.05;;;20.50;84.10;;;;;;4190561;28;20391;-64
2021/09/01 09:07:56;;;;;;;7.70;3.40;;;20.60;83.30;;;;;;4190254;28;20057;-66
2021/09/01 09:10:33;;;;;;;10.05;3.72;;;20.60;82.50;;;;;;4185225;28;20041;-67
2021/09/01 09:13:02;;;;;;;8.73;4.00;;;20.60;81.80;;;;;;4188473;28;20098;-66
2021/09/01 09:15:24;;;;;;;6.93;2.80;;;20.60;82.30;;;;;;4188091;28;20056;-66
2021/09/01 09:17:52;;;;;;;8.73;3.20;;;20.50;82.30;;;;;;4189902;28;20052;-66
2021/09/01 09:20:14;;;;;;;7.65;3.05;;;20.50;83.40;;;;;;4190438;28;20048;-67
2021/09/01 09:22:38;;;;;;;6.15;3.15;;;20.60;82.40;;;;;;4187188;28;20078;-66
2021/09/01 09:25:19;;;;;;;5.57;3.25;;;20.60;82.00;;;;;;4191048;28;20131;-66
2021/09/01 09:27:43;;;;;;;;;;;20.60;81.50;;;;;;4188910;28;20076;-67
2021/09/01 09:30:42;;;;;;;9.23;3.53;;;20.60;83.70;;;;;;4191014;28;19932;-64
2021/09/01 09:33:07;;;;;;;10.10;3.70;;;20.60;82.80;;;;;;4189422;28;20410;-66
2021/09/01 09:35:50;;;;;;;7.07;3.20;;;20.60;83.20;;;;;;4190076;28;20396;-66
2021/09/01 09:38:13;;;;;;;14.05;3.72;;;20.60;82.40;;;;;;4187510;28;20045;-66
2021/09/01 09:40:36;;;;;;;8.40;4.03;;;20.60;83.40;;;;;;4190900;28;20044;-65
2021/09/01 09:42:58;;;;;;;9.60;3.65;;;20.60;83.70;;;;;;4191727;28;20127;-66
2021/09/01 09:45:24;;;;;;;11.60;4.05;;;20.60;83.70;;;;;;4188687;28;20080;-67
2021/09/01 09:47:47;;;;;;;10.50;4.43;;;20.60;83.20;;;;;;4188046;28;20048;-66
2021/09/01 09:50:10;;;;;;;5.72;3.22;;;20.70;83.40;;;;;;4191191;28;20490;-66
2021/09/01 09:52:36;;;;;;;6.65;2.88;;;20.70;83.50;;;;;;4190676;28;20743;-66
2021/09/01 09:55:10;;;;;;;5.63;2.83;;;20.70;80.80;;;;;;4190007;28;20041;-66
2021/09/01 09:57:32;;;;;;;6.10;3.22;;;20.70;81.30;;;;;;4189445;28;20047;-66
2021/09/01 09:59:55;;;;;;;8.68;3.75;;;20.70;81.50;;;;;;4189728;28;20585;-66
2021/09/01 10:02:18;;;;;;;9.98;3.10;;;20.80;82.30;;;;;;4184120;28;20558;-67
2021/09/01 10:04:41;;;;;;;7.50;3.53;;;20.80;82.30;;;;;;4190143;28;20129;-67
2021/09/01 10:07:04;;;;;;;6.15;2.50;;;20.80;81.40;;;;;;4190639;28;20051;-68
2021/09/01 10:09:26;;;;;;;4.70;2.90;;;20.80;81.00;;;;;;4189841;28;20128;-67
2021/09/01 10:11:50;;;;;;;5.25;2.53;;;20.80;79.10;;;;;;4187473;28;20139;-67
2021/09/01 10:14:16;;;;;;;5.40;2.83;;;20.80;80.50;;;;;;4186867;28;20090;-68
2021/09/01 10:16:44;;;;;;;6.55;3.03;;;20.80;80.10;;;;;;4186476;28;20048;-66
2021/09/01 10:19:12;;;;;;;10.68;3.38;;;20.90;79.60;;;;;;4191143;28;20072;-69
2021/09/01 10:21:37;;;;;;;6.45;3.08;;;20.80;80.80;;;;;;4189950;28;20052;-68
2021/09/01 10:24:22;;;;;;;6.50;3.40;;;20.90;80.50;;;;;;4189527;28;20508;-70
2021/09/01 10:26:58;;;;;;;6.45;2.80;;;20.90;81.00;;;;;;4185909;28;20132;-68
2021/09/01 10:29:38;;;;;;;4.55;3.08;;;20.90;80.90;;;;;;4186212;28;20048;-67
2021/09/01 10:32:16;;;;;;;4.97;3.15;;;20.90;80.80;;;;;;4189711;28;20407;-68
2021/09/01 10:34:40;;;;;;;5.68;2.50;;;20.90;80.50;;;;;;4187229;28;20419;-68
2021/09/01 10:37:02;;;;;;;6.43;3.55;;;20.90;80.90;;;;;;4192586;28;20491;-69
2021/09/01 10:39:38;;;;;;;4.13;2.55;;;20.90;80.50;;;;;;4195174;28;20044;-66
2021/09/01 10:42:20;;;;;;;7.63;2.92;;;20.90;79.10;;;;;;4190254;28;20072;-67
2021/09/01 10:44:48;;;;;;;5.68;2.78;;;20.90;79.90;;;;;;4186522;28;20547;-66
2021/09/01 10:47:11;;;;;;;7.80;3.60;;;20.90;79.10;;;;;;4186513;28;20410;-65
2021/09/01 10:50:00;;;;;;;4.50;2.85;;;21.00;79.30;;;;;;4193118;28;20075;-66
2021/09/01 10:52:23;;;;;;;5.32;2.80;;;20.90;78.10;;;;;;4187686;28;20041;-65
2021/09/01 10:54:47;;;;;;;5.47;3.17;;;21.00;79.30;;;;;;4187756;28;20421;-67
2021/09/01 10:57:25;;;;;;;7.60;2.90;;;20.90;79.40;;;;;;4187940;28;20056;-66
2021/09/01 10:59:47;;;;;;;6.03;2.65;;;21.00;79.80;;;;;;4186909;28;20486;-66
2021/09/01 11:02:10;;;;;;;4.82;3.05;;;21.00;80.00;;;;;;4186012;28;20055;-66
2021/09/01 11:04:33;;;;;;;4.72;2.63;;;21.00;79.00;;;;;;4190019;28;20494;-65
2021/09/01 11:07:02;;;;;;;7.57;3.17;;;20.90;77.90;;;;;;4188289;28;20036;-63
2021/09/01 11:09:27;;;;;;;4.97;2.50;;;21.00;77.50;;;;;;4187687;28;20728;-62
2021/09/01 11:11:54;;;;;;;4.75;3.08;;;21.00;78.10;;;;;;4190000;28;20055;-69
2021/09/01 11:14:30;;;;;;;7.65;3.30;;;21.00;78.20;;;;;;4182349;28;20131;-67
2021/09/01 11:16:52;;;;;;;8.60;3.67;;;21.00;77.30;;;;;;4187584;28;20510;-66
2021/09/01 11:19:14;;;;;;;6.05;3.22;;;21.00;77.50;;;;;;4188853;28;20049;-62
2021/09/01 11:21:42;;;;;;;6.57;3.00;;;21.00;76.80;;;;;;4192613;28;20044;-65
2021/09/01 11:24:09;;;;;;;6.82;3.05;;;21.00;76.90;;;;;;4189370;28;20056;-66
2021/09/01 11:26:33;;;;;;;7.47;2.72;;;21.00;76.20;;;;;;4188637;28;20416;-67
2021/09/01 11:28:55;;;;;;;7.35;3.45;;;21.00;75.70;;;;;;4190252;28;20044;-66
2021/09/01 11:31:20;;;;;;;6.30;3.22;;;21.00;76.20;;;;;;4187829;28;20051;-67
2021/09/01 11:33:42;;;;;;;6.88;2.90;;;21.00;75.70;;;;;;4185622;28;20127;-67
2021/09/01 11:36:05;;;;;;;6.20;3.20;;;21.00;76.80;;;;;;4198137;28;20052;-67
2021/09/01 11:38:27;;;;;;;6.03;3.00;;;21.00;77.50;;;;;;4189333;28;20060;-67
2021/09/01 11:40:51;;;;;;;8.68;3.05;;;21.00;76.60;;;;;;4194686;28;20486;-66
2021/09/01 11:43:14;;;;;;;6.80;3.15;;;21.00;76.70;;;;;;4191999;28;20056;-68
2021/09/01 11:45:44;;;;;;;7.53;2.88;;;21.00;76.90;;;;;;4193781;28;20052;-72
2021/09/01 11:48:07;;;;;;;6.07;2.60;;;21.00;76.20;;;;;;4192746;28;20562;-71
2021/09/01 11:50:29;;;;;;;5.82;2.97;;;21.10;77.00;;;;;;4183181;28;20126;-73
2021/09/01 11:52:53;;;;;;;6.15;3.03;;;21.00;77.00;;;;;;4190463;28;20052;-72
2021/09/01 11:55:15;;;;;;;7.68;3.28;;;21.10;76.70;;;;;;4192468;28;20072;-76
2021/09/01 11:57:38;;;;;;;3.50;2.25;;;21.10;76.00;;;;;;4192772;28;20372;-70
2021/09/01 12:00:02;;;;;;;4.45;2.33;;;21.10;76.20;;;;;;4192144;28;20100;-73
2021/09/01 12:02:33;;;;;;;6.80;2.95;;;21.10;76.50;;;;;;4191592;28;20040;-72
2021/09/01 12:04:57;;;;;;;5.30;2.65;;;21.10;76.80;;;;;;4190628;28;20437;-72
2021/09/01 12:07:25;;;;;;;7.53;3.10;;;21.10;77.00;;;;;;4189536;28;20048;-72
2021/09/01 12:09:54;;;;;;;3.63;2.40;;;21.10;77.70;;;;;;4189783;28;20494;-72
2021/09/01 12:12:16;;;;;;;6.38;2.92;;;21.10;77.50;;;;;;4189150;28;20048;-69
2021/09/01 12:14:40;;;;;;;4.03;2.58;;;21.10;77.50;;;;;;4192452;28;20044;-71
2021/09/01 12:17:17;;;;;;;5.03;2.47;;;21.10;78.10;;;;;;4186701;28;20070;-64
2021/09/01 12:19:46;;;;;;;6.97;2.72;;;21.10;76.20;;;;;;4192084;28;20117;-70
2021/09/01 12:22:07;;;;;;;6.70;3.13;;;21.10;76.70;;;;;;4192279;28;20140;-71
2021/09/01 12:24:35;;;;;;;8.77;3.22;;;21.10;77.40;;;;;;4190526;28;20443;-71
2021/09/01 12:27:05;;;;;;;7.93;3.33;;;21.10;77.80;;;;;;4190194;28;20125;-71
2021/09/01 12:29:30;;;;;;;7.47;3.30;;;21.10;77.80;;;;;;4190621;28;20085;-64